TAF Text Data
IDs:
Format:
Raw Decoded Include METAR

Data at: 1259 UTC 24 May 2019

KMLI 241136Z 2412/2512 01008KT P6SM OVC040
  FM241430 VRB20G30KT 3SM -TSRA BKN025CB
  FM241700 17012G20KT P6SM BKN040
  PROB30 2421/2501 3SM TSRA OVC035CB
  FM250100 24012KT P6SM VCTS BKN040CB